createdAt,value
2018-08-07T00:00:26.970Z,43.38
2018-08-07T00:01:07.390Z,43.37
2018-08-07T00:01:47.813Z,43.27
2018-08-07T00:02:28.208Z,43.48
2018-08-07T00:03:08.609Z,43.37
2018-08-07T00:03:49.053Z,43.68
2018-08-07T00:04:29.551Z,43.77
2018-08-07T00:05:10.033Z,43.68
2018-08-07T00:05:50.676Z,43.77
2018-08-07T00:06:30.827Z,43.65
2018-08-07T00:07:11.206Z,43.96
2018-08-07T00:07:51.695Z,43.96
2018-08-07T00:08:32.146Z,43.77
2018-08-07T00:09:12.820Z,43.77
2018-08-07T00:09:53.098Z,43.68
2018-08-07T00:10:33.427Z,43.87
2018-08-07T00:11:13.931Z,44.13
2018-08-07T00:11:54.281Z,43.95
2018-08-07T00:12:34.707Z,44.06
2018-08-07T00:13:15.289Z,44.26
2018-08-07T00:13:55.697Z,44.43
2018-08-07T00:14:36.060Z,44.13
2018-08-07T00:15:16.441Z,44.45
2018-08-07T00:15:56.900Z,44.74
2018-08-07T00:16:37.242Z,44.74
2018-08-07T00:17:17.687Z,44.74
2018-08-07T00:17:58.237Z,44.64
2018-08-07T00:18:38.618Z,44.84
2018-08-07T00:19:18.913Z,44.74
2018-08-07T00:19:59.402Z,44.54
2018-08-07T00:20:39.897Z,44.72
2018-08-07T00:21:20.249Z,44.74
2018-08-07T00:22:00.605Z,44.72
2018-08-07T00:22:41.004Z,44.62
2018-08-07T00:23:21.478Z,44.62
2018-08-07T00:24:01.902Z,44.53
2018-08-07T00:24:42.396Z,45.2
2018-08-07T00:25:22.694Z,45.49
2018-08-07T00:26:03.058Z,45.3
2018-08-07T00:26:43.479Z,45.2
2018-08-07T00:27:23.864Z,45.59
2018-08-07T00:28:04.239Z,45.4
2018-08-07T00:28:44.696Z,45.49
2018-08-07T00:29:25.073Z,45.4
2018-08-07T00:30:05.527Z,45.49
2018-08-07T00:30:45.941Z,45.59
2018-08-07T00:31:26.276Z,46.15
2018-08-07T00:32:06.833Z,45.95
2018-08-07T00:32:47.114Z,45.86
2018-08-07T00:33:27.566Z,46.05
2018-08-07T00:34:08.021Z,45.95
2018-08-07T00:34:48.327Z,46.25
2018-08-07T00:35:28.779Z,46.15
2018-08-07T00:36:09.181Z,46.15
2018-08-07T00:36:49.496Z,46.73
2018-08-07T00:37:29.999Z,46.44
2018-08-07T00:38:10.352Z,46.63
2018-08-07T00:38:50.795Z,46.63
2018-08-07T00:39:31.167Z,46.44
2018-08-07T00:40:11.630Z,46.44
2018-08-07T00:40:52.006Z,46.73
2018-08-07T00:41:32.414Z,46.73
2018-08-07T00:42:12.851Z,46.73
2018-08-07T00:42:53.279Z,46.92
2018-08-07T00:43:33.721Z,46.73
2018-08-07T00:44:14.111Z,46.83
2018-08-07T00:44:54.515Z,46.92
2018-08-07T00:45:34.911Z,46.9
2018-08-07T00:46:15.279Z,47.11
2018-08-07T00:46:55.761Z,46.9
2018-08-07T00:47:36.194Z,46.61
2018-08-07T00:48:16.517Z,46.7
2018-08-07T00:48:56.920Z,46.9
2018-08-07T00:49:37.397Z,46.9
2018-08-07T00:50:17.724Z,46.61
2018-08-07T00:50:58.129Z,46.9
2018-08-07T00:51:38.525Z,47
2018-08-07T00:52:19.001Z,46.61
2018-08-07T00:54:36.928Z,46.8
2018-08-07T00:55:17.160Z,46.9
2018-08-07T00:55:57.507Z,47
2018-08-07T00:56:37.917Z,46.8
2018-08-07T00:57:18.296Z,46.9
2018-08-07T00:57:58.700Z,47
2018-08-07T00:58:39.115Z,46.9
2018-08-07T01:00:59.808Z,46.32
2018-08-07T01:01:39.664Z,46.3
2018-08-07T01:02:20.077Z,46.58
2018-08-07T01:03:00.526Z,46.68
2018-08-07T01:11:01.360Z,47.14
2018-08-07T01:11:42.032Z,47.43
2018-08-07T01:12:22.444Z,47.53
2018-08-07T01:13:03.259Z,47.7
2018-08-07T01:13:43.680Z,48.18
2018-08-07T01:14:24.091Z,48.18
2018-08-07T01:15:04.513Z,48.47
2018-08-07T01:16:49.501Z,48.57
2018-08-07T01:17:29.945Z,49.05
2018-08-07T01:18:10.278Z,49.05
2018-08-07T01:18:50.718Z,48.54
2018-08-07T01:19:31.101Z,49.24
2018-08-07T01:20:11.544Z,49.22
2018-08-07T01:20:51.933Z,49.32
2018-08-07T01:21:32.341Z,49.41
2018-08-07T01:23:34.716Z,49.32
2018-08-07T01:24:09.474Z,49.41
2018-08-07T01:24:49.989Z,48.93
2018-08-07T01:25:30.296Z,49.32
2018-08-07T01:26:10.660Z,50.09
2018-08-07T01:26:53.062Z,49.51
2018-08-07T01:27:34.902Z,49.6
2018-08-07T01:30:51.318Z,49.99
2018-08-07T01:31:31.279Z,49.8
2018-08-07T01:32:11.742Z,49.99
2018-08-07T01:32:52.059Z,49.41
2018-08-07T01:33:32.482Z,49.51
2018-08-07T01:34:12.912Z,50.09
2018-08-07T01:34:53.282Z,50.18
2018-08-07T01:35:33.670Z,49.6
2018-08-07T01:36:14.180Z,49.12
2018-08-07T01:36:54.469Z,49.32
2018-08-07T01:37:34.910Z,49.7
2018-08-07T01:38:15.311Z,49.51
2018-08-07T01:38:56.032Z,49.9
2018-08-07T01:39:36.576Z,50.28
2018-08-07T01:40:18.979Z,50.45
2018-08-07T01:40:59.292Z,50.16
2018-08-07T01:41:39.805Z,50.45
2018-08-07T01:42:20.173Z,50.16
2018-08-07T01:43:00.578Z,50.26
2018-08-07T01:43:41.279Z,50.64
2018-08-07T01:44:21.639Z,50.35
2018-08-07T01:48:42.785Z,50.86
2018-08-07T01:49:22.914Z,50.18
2018-08-07T01:50:03.336Z,50.18
2018-08-07T01:50:43.715Z,50.16
2018-08-07T01:51:24.138Z,51.05
2018-08-07T01:52:04.495Z,50.16
2018-08-07T01:52:44.956Z,50.26
2018-08-07T01:53:25.251Z,50.84
2018-08-07T01:54:05.674Z,50.26
2018-08-07T01:54:46.073Z,50.06
2018-08-07T01:55:26.472Z,50.16
2018-08-07T01:56:06.900Z,50.26
2018-08-07T01:56:47.236Z,49.96
2018-08-07T01:57:27.670Z,50.06
2018-08-07T01:58:08.210Z,50.16
2018-08-07T01:58:48.458Z,50.26
2018-08-07T01:59:28.851Z,50.35
2018-08-07T02:00:09.268Z,50.26
2018-08-07T02:00:49.716Z,50.35
2018-08-07T02:01:30.082Z,50.64
2018-08-07T02:05:02.782Z,50.93
2018-08-07T02:19:33.438Z,51.48
2018-08-07T02:21:32.558Z,52.73
2018-08-07T02:22:13.834Z,52.73
2018-08-07T02:22:54.228Z,52.64
2018-08-07T02:23:34.645Z,52.83
2018-08-07T02:24:15.181Z,52.83
2018-08-07T02:24:55.499Z,52.83
2018-08-07T02:25:35.929Z,53.22
2018-08-07T02:26:16.392Z,53.22
2018-08-07T02:26:57.685Z,52.83
2018-08-07T02:27:38.668Z,52.83
2018-08-07T02:28:19.078Z,52.64
2018-08-07T02:29:00.751Z,52.55
2018-08-07T02:29:44.795Z,52.73
2018-08-07T02:31:32.659Z,53.39
2018-08-07T02:40:33.019Z,54.71
2018-08-07T02:41:18.670Z,54.8
2018-08-07T02:41:58.980Z,54.9
2018-08-07T02:42:39.402Z,54.61
2018-08-07T02:43:19.982Z,54.8
2018-08-07T02:44:00.572Z,54.8
2018-08-07T02:44:40.975Z,54.8
2018-08-07T02:45:27.019Z,55.19
2018-08-07T02:46:06.483Z,55.29
2018-08-07T02:46:47.031Z,54.9
2018-08-07T02:47:27.597Z,54.8
2018-08-07T02:48:48.966Z,55
2018-08-07T02:49:29.584Z,55.57
2018-08-07T02:50:09.855Z,55.38
2018-08-07T02:50:50.230Z,55.57
2018-08-07T02:51:30.714Z,55.09
2018-08-07T02:52:11.036Z,55.29
2018-08-07T02:52:51.440Z,55.48
2018-08-07T02:53:31.877Z,55.48
2018-08-07T02:54:12.226Z,55.29
2018-08-07T03:04:21.020Z,54.35
2018-08-07T03:05:00.842Z,54.64
2018-08-07T03:05:41.190Z,54.74
2018-08-07T03:06:23.693Z,54.25
2018-08-07T03:07:03.892Z,54.74
2018-08-07T03:07:44.233Z,54.64
2018-08-07T03:08:24.711Z,54.44
2018-08-07T03:09:05.148Z,54.16
2018-08-07T03:09:45.545Z,53.87
2018-08-07T03:10:25.900Z,54.35
2018-08-07T03:14:01.469Z,54.35
2018-08-07T03:14:41.750Z,54.93
2018-08-07T03:15:22.138Z,54.74
2018-08-07T03:16:02.584Z,54.74
2018-08-07T03:16:43.045Z,54.54
2018-08-07T03:17:23.543Z,54.64
2018-08-07T03:18:03.821Z,54.35
2018-08-07T03:18:44.235Z,54.44
2018-08-07T03:19:24.640Z,54.25
2018-08-07T03:20:05.075Z,54.35
2018-08-07T03:20:45.638Z,54.54
2018-08-07T03:21:26.138Z,54.54
2018-08-07T03:22:06.532Z,54.54
2018-08-07T03:22:46.929Z,54.83
2018-08-07T03:23:27.372Z,55.02
2018-08-07T03:24:07.755Z,55.02
2018-08-07T03:24:48.160Z,54.83
2018-08-07T03:25:28.575Z,55.02
2018-08-07T03:26:08.937Z,55.02
2018-08-07T03:26:49.410Z,54.93
2018-08-07T03:29:53.016Z,55.51
2018-08-07T03:30:33.419Z,55.02
2018-08-07T03:31:13.832Z,55.02
2018-08-07T03:31:54.531Z,54.74
2018-08-07T03:32:34.979Z,54.83
2018-08-07T03:33:15.398Z,54.44
2018-08-07T03:35:03.115Z,54.44
2018-08-07T03:35:43.542Z,54.25
2018-08-07T03:36:23.968Z,54.44
2018-08-07T03:37:04.359Z,54.25
2018-08-07T03:37:44.789Z,54.25
2018-08-07T03:38:25.184Z,54.25
2018-08-07T03:39:05.585Z,54.74
2018-08-07T03:39:46.180Z,54.25
2018-08-07T03:40:26.397Z,54.83
2018-08-07T03:42:23.862Z,54.93
2018-08-07T03:43:04.369Z,54.83
2018-08-07T03:43:44.758Z,55.02
2018-08-07T03:44:25.156Z,54.25
2018-08-07T03:45:05.553Z,55.02
2018-08-07T03:45:46.025Z,55.02
2018-08-07T03:46:26.378Z,55.12
2018-08-07T03:47:06.766Z,54.83
2018-08-07T03:47:47.284Z,54.8
2018-08-07T03:54:32.338Z,55.19
2018-08-07T03:55:18.857Z,55.51
2018-08-07T03:55:57.200Z,55
2018-08-07T03:56:37.613Z,56.27
2018-08-07T03:57:18.050Z,55.67
2018-08-07T03:57:58.415Z,55.12
2018-08-07T03:58:38.860Z,55.02
2018-08-07T03:59:19.224Z,55.51
2018-08-07T03:59:59.641Z,55.77
2018-08-07T04:00:39.988Z,55.51
2018-08-07T04:01:20.446Z,55.51
2018-08-07T04:02:01.763Z,55.02
2018-08-07T04:02:41.412Z,55.22
2018-08-07T04:03:21.857Z,55.67
2018-08-07T04:07:32.228Z,55.7
2018-08-07T04:08:11.970Z,55.12
2018-08-07T04:08:53.828Z,55.51
2018-08-07T04:09:34.269Z,55.48
2018-08-07T04:10:14.646Z,55.7
2018-08-07T04:10:55.099Z,55.41
2018-08-07T04:11:35.470Z,55.41
2018-08-07T04:12:15.802Z,55.38
2018-08-07T04:12:56.376Z,55.29
2018-08-07T04:13:36.807Z,55.48
2018-08-07T04:14:17.156Z,55.67
2018-08-07T04:14:57.582Z,55.87
2018-08-07T04:15:37.943Z,56.05
2018-08-07T04:16:18.353Z,55.96
2018-08-07T04:16:58.796Z,55.67
2018-08-07T04:17:39.180Z,55.57
2018-08-07T04:18:19.615Z,55.89
2018-08-07T04:19:00.003Z,56.18
2018-08-07T04:19:40.402Z,55.7
2018-08-07T04:20:20.839Z,55.99
2018-08-07T04:21:01.205Z,55.22
2018-08-07T04:21:41.606Z,55.67
2018-08-07T04:22:22.038Z,55.51
2018-08-07T04:23:02.433Z,55.02
2018-08-07T04:23:42.850Z,54.83
2018-08-07T04:24:23.247Z,55.22
2018-08-07T04:25:03.644Z,55.02
2018-08-07T04:25:44.096Z,55.22
2018-08-07T04:26:24.460Z,55.02
2018-08-07T04:27:04.859Z,55.02
2018-08-07T05:15:03.474Z,42.63
2018-08-07T05:15:44.275Z,41.95
2018-08-07T05:16:24.629Z,41.95
2018-08-07T05:17:05.090Z,41.68
2018-08-07T05:17:45.485Z,41.68
2018-08-07T05:18:26.305Z,41.68
2018-08-07T05:19:08.433Z,41.22
2018-08-07T05:21:30.746Z,40.26
2018-08-07T05:22:23.855Z,39.88
2018-08-07T05:23:16.502Z,39.49
2018-08-07T05:24:11.723Z,38.81
2018-08-07T05:25:05.847Z,38.54
2018-08-07T05:26:04.299Z,38.64
2018-08-07T05:27:07.844Z,38.07
2018-08-07T05:28:02.903Z,37.68
2018-08-07T05:28:58.123Z,37.7
2018-08-07T05:29:52.495Z,36.93
2018-08-07T05:30:46.808Z,36.46
2018-08-07T05:31:39.238Z,36.07
2018-08-07T05:32:31.846Z,35.68
2018-08-07T05:33:35.493Z,35.5
2018-08-07T05:34:33.561Z,35.89
2018-08-07T05:35:30.842Z,35.89
2018-08-07T05:36:27.979Z,35.97
2018-08-07T05:37:20.338Z,35.78
2018-08-07T05:38:14.075Z,35.99
2018-08-07T05:39:07.464Z,35.8
2018-08-07T05:39:59.726Z,35.8
2018-08-07T05:40:53.815Z,35.7
2018-08-07T05:43:49.223Z,34.27
2018-08-07T05:44:45.038Z,34.47
2018-08-07T05:45:49.027Z,33.9
2018-08-07T05:46:56.740Z,33.31
2018-08-07T05:47:56.413Z,33.43
2018-08-07T05:49:02.367Z,32.47
2018-08-07T05:51:42.036Z,31.6
2018-08-07T05:52:22.449Z,31.7
2018-08-07T05:53:02.901Z,31.8
2018-08-07T05:53:43.390Z,31.52
2018-08-07T05:54:24.911Z,31.23
2018-08-07T05:55:04.309Z,31.15
2018-08-07T05:55:45.089Z,31.13
2018-08-07T05:56:25.582Z,30.76
2018-08-07T05:57:05.989Z,30.66
2018-08-07T05:57:46.446Z,30.94
2018-08-07T05:58:26.832Z,30.86
2018-08-07T05:59:07.267Z,30.86
2018-08-07T05:59:47.737Z,31.05
2018-08-07T06:00:29.391Z,30.96
2018-08-07T06:01:10.096Z,30.66
2018-08-07T06:01:50.519Z,30.57
2018-08-07T06:02:30.933Z,30.58
2018-08-07T06:03:11.403Z,30.19
2018-08-07T06:03:52.019Z,30.19
2018-08-07T06:04:33.217Z,29.81
2018-08-07T06:05:13.643Z,29.61
2018-08-07T06:05:55.041Z,29.22
2018-08-07T06:06:36.778Z,29.5
2018-08-07T06:07:17.283Z,29.99
2018-08-07T06:07:57.660Z,29.9
2018-08-07T06:08:38.299Z,29.99
2018-08-07T06:09:19.662Z,29.9
2018-08-07T06:10:00.136Z,29.9
2018-08-07T06:10:40.591Z,29.91
2018-08-07T06:11:21.005Z,29.52
2018-08-07T06:12:01.433Z,29.22
2018-08-07T06:12:41.819Z,29.34
2018-08-07T06:13:22.378Z,29.24
2018-08-07T06:14:02.825Z,28.45
2018-08-07T06:14:44.209Z,28.65
2018-08-07T06:15:24.806Z,28.36
2018-08-07T06:16:05.352Z,28.45
2018-08-07T06:16:46.178Z,28.36
2018-08-07T06:17:26.548Z,28.28
2018-08-07T06:18:07.369Z,28.08
2018-08-07T06:18:48.768Z,28.28
2018-08-07T06:19:29.451Z,27.78
2018-08-07T06:20:10.021Z,28.29
2018-08-07T06:20:50.572Z,27.4
2018-08-07T06:21:31.290Z,27.31
2018-08-07T06:22:12.256Z,27.21
2018-08-07T06:22:52.571Z,26.62
2018-08-07T06:23:32.999Z,26.64
2018-08-07T06:24:14.341Z,26.82
2018-08-07T06:24:54.357Z,26.25
2018-08-07T06:25:34.777Z,25.85
2018-08-07T06:26:15.268Z,26.14
2018-08-07T06:26:55.778Z,26.23
2018-08-07T06:27:36.380Z,26.42
2018-08-07T06:28:17.711Z,26.81
2018-08-07T06:28:57.760Z,27.09
2018-08-07T06:29:38.233Z,27.58
2018-08-07T06:30:18.708Z,27.58
2018-08-07T06:30:59.144Z,27.37
2018-08-07T06:31:40.550Z,28.15
2018-08-07T06:32:20.951Z,28.53
2018-08-07T06:33:01.562Z,28.33
2018-08-07T06:33:41.953Z,28.14
2018-08-07T06:34:22.395Z,28.04
2018-08-07T06:35:02.875Z,28.61
2018-08-07T06:35:43.369Z,29.3
2018-08-07T06:36:23.708Z,28.61
2018-08-07T06:37:05.935Z,28.91
2018-08-07T06:37:46.580Z,28.61
2018-08-07T06:38:26.929Z,28.61
2018-08-07T06:39:07.516Z,28.43
2018-08-07T06:39:47.834Z,28.63
2018-08-07T06:40:28.316Z,28.23
2018-08-07T06:41:09.017Z,28.15
2018-08-07T06:41:49.450Z,27.86
2018-08-07T06:42:30.469Z,27.37
2018-08-07T06:43:10.945Z,27.67
2018-08-07T06:43:51.347Z,27.48
2018-08-07T06:44:31.805Z,27
2018-08-07T06:45:12.270Z,26.82
2018-08-07T06:45:52.800Z,26.53
2018-08-07T06:46:33.268Z,25.95
2018-08-07T06:47:13.765Z,25.95
2018-08-07T06:47:54.113Z,25.77
2018-08-07T06:48:35.293Z,25.67
2018-08-07T06:49:15.824Z,25.67
2018-08-07T06:49:56.207Z,25.48
2018-08-07T06:50:36.733Z,25.28
2018-08-07T06:51:17.254Z,25.38
2018-08-07T06:51:57.665Z,25.57
2018-08-07T06:52:38.147Z,25.67
2018-08-07T06:53:18.504Z,25.57
2018-08-07T06:53:59.026Z,25.77
2018-08-07T06:54:39.532Z,25.87
2018-08-07T06:55:19.962Z,25.87
2018-08-07T06:56:00.427Z,25.67
2018-08-07T06:56:40.870Z,25.67
2018-08-07T06:57:21.281Z,25.48
2018-08-07T06:58:01.771Z,25.59
2018-08-07T06:58:42.352Z,25.2
2018-08-07T06:59:22.868Z,25.29
2018-08-07T07:00:03.352Z,25.1
2018-08-07T07:00:43.933Z,25.28
2018-08-07T07:01:24.301Z,25.57
2018-08-07T07:02:04.873Z,25.66
2018-08-07T07:02:45.404Z,25.85
2018-08-07T07:03:25.695Z,25.85
2018-08-07T07:04:06.161Z,25.85
2018-08-07T07:04:46.604Z,25.85
2018-08-07T07:05:27.221Z,25.95
2018-08-07T07:06:07.522Z,26.25
2018-08-07T07:06:48.078Z,26.25
2018-08-07T07:07:28.468Z,26.05
2018-08-07T07:08:09.051Z,26.34
2018-08-07T07:08:49.358Z,26.15
2018-08-07T07:09:30.370Z,25.76
2018-08-07T07:10:10.653Z,25.76
2018-08-07T07:10:51.042Z,25.77
2018-08-07T07:11:31.472Z,25.77
2018-08-07T07:12:12.065Z,25.67
2018-08-07T07:12:53.895Z,25.77
2018-08-07T07:13:34.463Z,25.96
2018-08-07T07:14:14.820Z,25.57
2018-08-07T07:14:55.973Z,25.67
2018-08-07T07:15:36.326Z,25.77
2018-08-07T07:16:16.853Z,25.77
2018-08-07T07:16:57.176Z,25.96
2018-08-07T07:17:37.580Z,26.17
2018-08-07T07:18:17.999Z,25.98
2018-08-07T07:18:58.382Z,26.09
2018-08-07T07:19:38.851Z,25.79
2018-08-07T07:20:19.318Z,25.7
2018-08-07T07:20:59.898Z,25.61
2018-08-07T07:21:40.202Z,25.22
2018-08-07T07:22:20.618Z,25.23
2018-08-07T07:23:01.083Z,24.84
2018-08-07T07:23:41.531Z,24.74
2018-08-07T07:24:21.966Z,24.84
2018-08-07T07:26:51.420Z,24.64
2018-08-07T07:27:44.970Z,24.64
2018-08-07T07:28:37.928Z,24.64
2018-08-07T07:29:33.247Z,25.12
2018-08-07T07:30:28.664Z,25.22
2018-08-07T07:32:59.471Z,25.11
2018-08-07T07:35:13.872Z,25.21
2018-08-07T07:39:44.812Z,25.31
2018-08-07T07:40:25.102Z,25.21
2018-08-07T07:41:05.510Z,25.31
2018-08-07T07:41:45.924Z,25.21
2018-08-07T07:42:26.432Z,25.31
2018-08-07T07:43:06.943Z,25.11
2018-08-07T07:43:47.380Z,24.82
2018-08-07T07:44:27.765Z,24.43
2018-08-07T07:45:08.198Z,24.43
2018-08-07T07:45:48.625Z,24.44
2018-08-07T07:46:29.025Z,24.04
2018-08-07T07:47:09.567Z,24.43
2018-08-07T07:47:49.849Z,24.73
2018-08-07T07:48:30.297Z,25.01
2018-08-07T07:49:10.684Z,24.81
2018-08-07T07:49:51.127Z,24.91
2018-08-07T07:50:31.560Z,25.11
2018-08-07T07:51:12.034Z,25.21
2018-08-07T07:51:52.400Z,25.01
2018-08-07T07:52:32.820Z,25.11
2018-08-07T07:53:13.705Z,25.21
2018-08-07T07:53:54.187Z,24.82
2018-08-07T07:54:34.585Z,24.92
2018-08-07T07:55:15.217Z,24.43
2018-08-07T07:55:55.789Z,24.63
2018-08-07T07:56:36.338Z,24.25
2018-08-07T07:57:16.775Z,24.15
2018-08-07T07:57:57.218Z,23.75
2018-08-07T07:58:38.352Z,23.95
2018-08-07T07:59:18.229Z,23.75
2018-08-07T07:59:58.953Z,23.47
2018-08-07T08:00:39.694Z,23.38
2018-08-07T08:01:20.151Z,23.39
2018-08-07T08:02:00.703Z,23.39
2018-08-07T08:02:41.592Z,23.29
2018-08-07T08:03:22.209Z,23.39
2018-08-07T08:04:02.601Z,23.39
2018-08-07T08:04:43.039Z,23.49
2018-08-07T08:05:23.651Z,23.49
2018-08-07T08:06:04.113Z,23.58
2018-08-07T08:06:44.461Z,23.47
2018-08-07T08:07:25.437Z,23.58
2018-08-07T08:08:08.624Z,23.49
2018-08-07T08:08:48.990Z,23.58
2018-08-07T08:09:30.908Z,23.2
2018-08-07T08:10:11.258Z,22.91
2018-08-07T08:10:51.854Z,23.1
2018-08-07T08:13:00.291Z,23.1
2018-08-07T08:13:52.929Z,23.2
2018-08-07T08:16:17.491Z,22.92
2018-08-07T08:18:13.302Z,23.3
2018-08-07T08:19:05.619Z,23.78
2018-08-07T08:19:46.158Z,23.97
2018-08-07T08:20:26.955Z,24.17
2018-08-07T08:21:07.264Z,23.88
2018-08-07T08:21:47.724Z,23.78
2018-08-07T08:22:28.364Z,23.4
2018-08-07T08:23:08.831Z,23.99
2018-08-07T08:23:49.181Z,23.5
2018-08-07T08:24:29.649Z,23.6
2018-08-07T08:25:10.105Z,23.61
2018-08-07T08:25:51.020Z,23.31
2018-08-07T08:26:31.385Z,23.11
2018-08-07T08:27:11.697Z,23.11
2018-08-07T08:27:52.136Z,23.03
2018-08-07T08:28:32.563Z,22.34
2018-08-07T08:29:13.039Z,22.24
2018-08-07T08:29:53.540Z,22.35
2018-08-07T08:30:33.880Z,22.05
2018-08-07T08:31:14.325Z,21.97
2018-08-07T08:31:54.780Z,21.67
2018-08-07T08:32:35.157Z,21.78
2018-08-07T08:33:15.665Z,21.29
2018-08-07T08:33:56.138Z,21.09
2018-08-07T08:34:36.566Z,21.19
2018-08-07T08:35:16.997Z,21.29
2018-08-07T08:35:57.326Z,21.58
2018-08-07T08:36:37.968Z,21.28
2018-08-07T08:37:18.341Z,21.77
2018-08-07T08:37:58.954Z,21.76
2018-08-07T08:38:39.353Z,21.95
2018-08-07T08:39:19.902Z,22.06
2018-08-07T08:40:01.391Z,21.67
2018-08-07T08:40:41.870Z,21.37
2018-08-07T08:41:22.350Z,21.29
2018-08-07T08:42:02.720Z,21.09
2018-08-07T08:42:43.190Z,21.19
2018-08-07T08:43:23.628Z,21.39
2018-08-07T08:44:04.095Z,21.29
2018-08-07T08:44:44.446Z,21.19
2018-08-07T08:45:24.905Z,21.19
2018-08-07T08:46:05.271Z,21.1
2018-08-07T08:46:45.760Z,21
2018-08-07T08:47:26.334Z,20.9
2018-08-07T08:48:06.726Z,21
2018-08-07T08:48:47.267Z,20.7
2018-08-07T08:49:27.629Z,20.7
2018-08-07T08:50:08.061Z,20.7
2018-08-07T08:50:48.448Z,20.7
2018-08-07T08:51:28.945Z,20.42
2018-08-07T08:52:09.394Z,20.22
2018-08-07T08:52:49.821Z,19.93
2018-08-07T08:53:30.225Z,20.03
2018-08-07T08:54:10.640Z,20.03
2018-08-07T08:54:51.100Z,19.26
2018-08-07T08:55:31.471Z,19.44
2018-08-07T08:56:11.860Z,19.84
2018-08-07T08:56:52.294Z,19.54
2018-08-07T08:57:32.705Z,19.06
2018-08-07T08:58:13.300Z,19.26
2018-08-07T08:58:53.706Z,19.44
2018-08-07T08:59:34.292Z,19.24
2018-08-07T09:00:14.646Z,19.34
2018-08-07T09:00:55.167Z,19.63
2018-08-07T09:01:35.924Z,19.24
2018-08-07T09:02:16.297Z,19.34
2018-08-07T09:02:56.680Z,19.35
2018-08-07T09:03:37.498Z,19.45
2018-08-07T09:04:17.917Z,19.15
2018-08-07T09:04:58.353Z,19.35
2018-08-07T09:05:38.702Z,19.45
2018-08-07T09:06:19.118Z,19.15
2018-08-07T09:06:59.555Z,18.96
2018-08-07T09:07:40.015Z,19.06
2018-08-07T09:08:20.402Z,18.96
2018-08-07T09:09:00.818Z,18.86
2018-08-07T09:09:41.222Z,19.35
2018-08-07T09:10:21.743Z,19.55
2018-08-07T09:11:02.118Z,19.24
2018-08-07T09:11:42.600Z,19.54
2018-08-07T09:12:23.306Z,19.64
2018-08-07T09:13:03.878Z,19.34
2018-08-07T09:13:44.183Z,19.44
2018-08-07T09:14:24.631Z,19.15
2018-08-07T09:15:05.090Z,19.34
2018-08-07T09:15:45.536Z,19.15
2018-08-07T09:16:26.054Z,18.86
2018-08-07T09:17:06.384Z,18.76
2018-08-07T09:17:46.808Z,18.48
2018-08-07T09:18:27.256Z,18.29
2018-08-07T09:19:07.703Z,17.6
2018-08-07T09:19:48.152Z,17.71
2018-08-07T09:20:29.201Z,17.5
2018-08-07T09:21:09.632Z,17.41
2018-08-07T09:21:50.024Z,17.31
2018-08-07T09:22:30.526Z,17.12
2018-08-07T09:23:10.858Z,17.32
2018-08-07T09:23:51.290Z,16.63
2018-08-07T09:24:31.683Z,17.22
2018-08-07T09:25:12.105Z,16.72
2018-08-07T09:25:52.805Z,17.02
2018-08-07T09:26:33.035Z,17.11
2018-08-07T09:27:13.391Z,16.92
2018-08-07T09:27:53.861Z,16.93
2018-08-07T09:28:34.251Z,16.22
2018-08-07T09:29:14.661Z,17.02
2018-08-07T09:29:55.049Z,16.61
2018-08-07T09:30:35.465Z,16.81
2018-08-07T09:31:15.952Z,16.31
2018-08-07T09:31:56.367Z,16.13
2018-08-07T09:32:36.768Z,15.83
2018-08-07T09:33:17.230Z,15.84
2018-08-07T09:33:57.605Z,15.54
2018-08-07T09:34:38.127Z,15.54
2018-08-07T09:35:18.687Z,15.43
2018-08-07T09:35:58.962Z,15.94
2018-08-07T09:36:39.380Z,15.84
2018-08-07T09:37:19.723Z,15.84
2018-08-07T09:38:00.282Z,15.15
2018-08-07T09:38:40.766Z,15.16
2018-08-07T09:39:21.215Z,14.97
2018-08-07T09:40:01.876Z,14.37
2018-08-07T09:40:42.589Z,14.48
2018-08-07T09:41:22.887Z,13.87
2018-08-07T09:42:03.339Z,14.17
2018-08-07T09:42:43.846Z,14.27
2018-08-07T09:43:24.602Z,14.47
2018-08-07T09:44:04.966Z,14.57
2018-08-07T09:44:45.411Z,14.48
2018-08-07T09:45:25.881Z,13.89
2018-08-07T09:46:06.423Z,13.59
2018-08-07T09:46:46.859Z,13.6
2018-08-07T09:47:27.469Z,13.4
2018-08-07T09:48:07.853Z,14.39
2018-08-07T09:48:48.301Z,14.19
2018-08-07T09:49:28.648Z,14.09
2018-08-07T09:50:09.176Z,13.9
2018-08-07T09:50:49.612Z,14.19
2018-08-07T09:51:30.204Z,13.79
2018-08-07T09:52:11.534Z,14.18
2018-08-07T09:52:52.792Z,14.38
2018-08-07T09:53:33.016Z,14.07
2018-08-07T09:54:17.148Z,14.47
2018-08-07T09:54:58.910Z,14.56
2018-08-07T09:56:56.505Z,12.98
2018-08-07T09:57:50.773Z,12.59
2018-08-07T09:58:43.772Z,12.7
2018-08-07T09:59:37.177Z,11.9
2018-08-07T10:00:32.196Z,11.71
2018-08-07T10:01:24.525Z,11.4
2018-08-07T10:02:20.014Z,11.99
2018-08-07T10:03:22.148Z,13.28
2018-08-07T10:06:08.704Z,13.98
2018-08-07T10:07:12.854Z,14.58
2018-08-07T10:08:11.025Z,14.79
2018-08-07T10:20:41.004Z,14.11
2018-08-07T10:21:39.017Z,14.01
2018-08-07T10:22:34.490Z,13.82
2018-08-07T10:23:42.651Z,13.63
2018-08-07T10:24:40.165Z,12.84
2018-08-07T10:25:41.065Z,12.54
2018-08-07T10:26:37.181Z,12.64
2018-08-07T10:27:42.522Z,12.25
2018-08-07T10:28:46.393Z,12.16
2018-08-07T11:07:19.043Z,8.11
2018-08-07T11:08:14.279Z,8.01
2018-08-07T11:09:08.288Z,7.71
2018-08-07T11:10:10.223Z,8.01
2018-08-07T11:11:08.688Z,8.31
2018-08-07T11:12:05.312Z,8.01
2018-08-07T11:12:59.410Z,8.01
2018-08-07T11:13:52.972Z,7.91
2018-08-07T11:14:46.545Z,7.71
2018-08-07T11:16:15.655Z,8.01
2018-08-07T11:17:14.668Z,7.91
2018-08-07T11:18:17.861Z,7.91
2018-08-07T11:21:01.897Z,7.21
2018-08-07T11:21:58.741Z,7.81
2018-08-07T11:25:53.230Z,8.72
2018-08-07T11:26:52.599Z,8.52
2018-08-07T11:27:50.248Z,8.42
2018-08-07T11:28:46.781Z,8.61
2018-08-07T11:29:49.208Z,8.81
2018-08-07T11:31:25.421Z,8.72
2018-08-07T11:32:43.518Z,8.51
2018-08-07T11:36:00.500Z,8.53
2018-08-07T11:50:50.377Z,9.01
2018-08-07T11:51:32.227Z,8.91
2018-08-07T11:52:12.646Z,8.51
2018-08-07T11:52:53.586Z,8.72
2018-08-07T11:53:35.394Z,9.01
2018-08-07T11:54:15.925Z,9.01
2018-08-07T11:54:56.274Z,8.72
2018-08-07T11:55:37.018Z,9.01
2018-08-07T11:56:17.389Z,8.91
2018-08-07T11:56:58.094Z,8.62
2018-08-07T11:57:39.088Z,9.01
2018-08-07T11:58:19.798Z,8.61
2018-08-07T11:59:00.753Z,8.81
2018-08-07T11:59:41.070Z,8.91
2018-08-07T12:00:21.595Z,8.91
2018-08-07T12:01:02.334Z,8.91
2018-08-07T12:01:47.741Z,8.61
2018-08-07T12:02:29.436Z,8.81
2018-08-07T12:03:10.721Z,9.2
2018-08-07T12:03:51.222Z,9.11
2018-08-07T12:04:31.572Z,9.2
2018-08-07T12:05:12.281Z,9.01
2018-08-07T12:05:53.080Z,9.11
2018-08-07T12:06:33.538Z,9.21
2018-08-07T12:07:13.957Z,8.91
2018-08-07T12:07:54.448Z,8.61
2018-08-07T12:08:35.029Z,8.51
2018-08-07T12:09:15.505Z,8.41
2018-08-07T12:09:56.155Z,8.82
2018-08-07T12:10:37.527Z,8.61
2018-08-07T12:11:21.144Z,8.61
2018-08-07T12:12:03.566Z,8.91
2018-08-07T12:12:44.926Z,9
2018-08-07T12:13:25.245Z,9.1
2018-08-07T12:14:06.633Z,9.2
2018-08-07T12:14:47.538Z,9.1
2018-08-07T12:15:28.832Z,8.59
2018-08-07T12:16:12.298Z,8.7
2018-08-07T12:16:52.720Z,8.5
2018-08-07T12:17:33.189Z,9.09
2018-08-07T12:18:13.610Z,8.7
2018-08-07T12:18:54.952Z,9
2018-08-07T12:19:35.737Z,8.91
2018-08-07T12:20:16.179Z,8.61
2018-08-07T12:20:57.763Z,8.2
2018-08-07T12:22:45.470Z,9.11
2018-08-07T12:23:25.651Z,8.3
2018-08-07T12:24:06.232Z,8.5
2018-08-07T12:24:46.814Z,8.5
2018-08-07T12:25:27.466Z,7.9
2018-08-07T12:26:07.873Z,8.3
2018-08-07T12:26:48.610Z,8.1
2018-08-07T12:27:28.961Z,8.2
2018-08-07T12:28:09.428Z,8.11
2018-08-07T12:28:51.040Z,8.31
2018-08-07T12:29:31.588Z,8.71
2018-08-07T12:30:12.498Z,8.41
2018-08-07T12:30:59.928Z,8.61
2018-08-07T12:31:42.053Z,8.51
2018-08-07T12:32:22.512Z,8.51
2018-08-07T12:34:16.082Z,8.11
2018-08-07T12:34:57.571Z,8.11
2018-08-07T12:35:38.075Z,8.01
2018-08-07T12:36:19.141Z,8.11
2018-08-07T12:36:59.433Z,8.01
2018-08-07T12:37:42.493Z,8.01
2018-08-07T12:38:29.181Z,7.91
2018-08-07T12:39:11.190Z,8.01
2018-08-07T12:39:49.703Z,8.21
2018-08-07T12:40:30.230Z,8.01
2018-08-07T12:41:10.834Z,8.01
2018-08-07T12:41:51.137Z,8.01
2018-08-07T12:42:31.598Z,7.32
2018-08-07T12:43:13.508Z,7.82
2018-08-07T12:43:54.722Z,7.92
2018-08-07T12:44:36.962Z,8.02
2018-08-07T12:45:20.714Z,7.72
2018-08-07T12:46:05.251Z,8.01